East Bangor, Pennsylvania
Current Conditions -  °F | °C
As of 5:51 AM on Tuesday 21 Oct 2014 (Local Time) from KABE Reporting Station
Overcast Overcast  
Wind Chill: 11°   Ceiling: 6000
Heat Index: 11°   Visibility: 10mi
Dew Point:   Wind: 5mph
Humidity: 89%   Direction: 60°ENE
Pressure: 29.87"   Gusts: NA
Location:  40.8463°N, 75.1731°W
Report Text: KABE 210951Z AUTO 06004KT 10SM BKN060 OVC075 11/09 A2987 RMK AO2 RAE18 SLP115 P0000 T01060089 TSNO
Loading
Personal Weather Stations






























Interactive Weather Map
Tropical Storm Tracking
New forecast layout! Learn more

10-Day Weather Forecast

Advertisements
Track Severe Weather on mobile